This is the latest recevied weather packets stored in our database for station/object N0TKN. If no packets are shown the sender has not sent any weather packets the latest 10 day(s).
| Time | Temp. | Humidity | Pressure | Rain* | Wind** | Luminosity | Snow |
|---|---|---|---|---|---|---|---|
| 1777916716 | 25° C | 48% | 1002.4 hPa | 0 mm | - | 971 W/m² | - |
| 1777916116 | 23.89° C | 51% | 1002.2 hPa | 0 mm | - | 933 W/m² | - |
| 1777915516 | 23.33° C | 52% | 1003.1 hPa | 0 mm | - | 193 W/m² | - |
| 1777914917 | 23.33° C | 52% | 1003.4 hPa | 0 mm | - | 203 W/m² | - |
| 1777914317 | 23.33° C | 51% | 1003.9 hPa | 0 mm | - | 137 W/m² | - |
| 1777913717 | 23.33° C | 50% | 1004.2 hPa | 0 mm | - | 63 W/m² | - |
| 1777913117 | 23.33° C | 49% | 1004 hPa | 0 mm | - | 159 W/m² | - |
| 1777912517 | 23.33° C | 49% | 1004.3 hPa | 0 mm | - | 162 W/m² | - |
| 1777911917 | 23.89° C | 49% | 1004.6 hPa | 0 mm | - | 122 W/m² | - |
| 1777911318 | 23.89° C | 49% | 1004.7 hPa | 0 mm | - | 163 W/m² | - |
| 1777910718 | 24.44° C | 47% | 1004.5 hPa | 0 mm | - | 334 W/m² | - |
| 1777910118 | 25° C | 48% | 1003.3 hPa | 0 mm | - | 828 W/m² | - |
| 1777909518 | 23.89° C | 50% | 1003.2 hPa | 0 mm | - | 777 W/m² | - |
| 1777908918 | 23.33° C | 51% | 1003.3 hPa | 0 mm | - | 681 W/m² | - |
| 1777908318 | 22.78° C | 53% | 1003.3 hPa | 0 mm | - | 683 W/m² | - |
| 1777907715 | 21.67° C | 59% | 1003.1 hPa | 0 mm | - | 727 W/m² | - |
| 1777907118 | 20° C | 72% | 1003 hPa | 0 mm | - | 661 W/m² | - |
| 1777906518 | 17.78° C | 80% | 1002.9 hPa | 0 mm | - | 635 W/m² | - |
| 1777905916 | 17.22° C | 85% | 1004.7 hPa | 0 mm | - | 185 W/m² | - |
| 1777905316 | 17.22° C | 86% | 1004.3 hPa | 0 mm | - | 151 W/m² | - |
| 1777904716 | 16.11° C | 87% | 1004.3 hPa | 0.25 mm | - | 277 W/m² | - |
| 1777904116 | 16.11° C | 87% | 1004.5 hPa | 0.25 mm | - | 256 W/m² | - |
| 1777903516 | 15° C | 89% | 1004.5 hPa | 0.25 mm | - | 338 W/m² | - |
| 1777902916 | 15° C | 89% | 1005.2 hPa | 0.25 mm | - | 83 W/m² | - |
| 1777902317 | 15° C | 87% | 1005.5 hPa | 0.25 mm | - | 39 W/m² | - |
* Rain latest hour (hover to see other rain measurements)
** Current wind speed in m/s (hover to see current wind gust speed)